Time;durP1;ratioP1;P1;durP2;ratioP2;P2;SDS_P1;SDS_P2;PMS_P1;PMS_P2;Temp;Humidity;BMP_temperature;BMP_pressure;BME280_temperature;BME280_humidity;BME280_pressure;Samples;Min_cycle;Max_cycle;Signal;HPM_P1;HPM_P2
2022/06/10 00:00:52;;;;;;;1.63;0.50;;;;;;;;;;5014767;28;20053;-64
2022/06/10 00:03:20;;;;;;;4.45;0.90;;;;;;;;;;4997889;28;20030;-65
2022/06/10 00:05:48;;;;;;;3.03;0.65;;;;;;;;;;4997204;28;20130;-65
2022/06/10 00:08:17;;;;;;;3.95;0.57;;;;;;;;;;4997174;28;20124;-67
2022/06/10 00:10:46;;;;;;;1.65;0.55;;;;;;;;;;4996841;28;20037;-64
2022/06/10 00:13:14;;;;;;;4.43;0.98;;;;;;;;;;4998761;28;20521;-63
2022/06/10 00:15:41;;;;;;;3.60;0.80;;;;;;;;;;4997519;28;20129;-64
2022/06/10 00:18:08;;;;;;;3.00;1.00;;;;;;;;;;5012981;28;20041;-63
2022/06/10 00:20:34;;;;;;;3.00;0.80;;;;;;;;;;4997724;28;20046;-64
2022/06/10 00:23:01;;;;;;;2.30;0.73;;;;;;;;;;4999031;28;20037;-64
2022/06/10 00:25:28;;;;;;;4.35;0.70;;;;;;;;;;4997742;28;20034;-62
2022/06/10 00:27:55;;;;;;;4.47;0.90;;;;;;;;;;4997509;28;20041;-63
2022/06/10 00:30:24;;;;;;;1.70;0.60;;;;;;;;;;4997423;28;20124;-65
2022/06/10 00:32:51;;;;;;;3.45;0.73;;;;;;;;;;4995821;28;20192;-66
2022/06/10 00:35:17;;;;;;;2.40;0.80;;;;;;;;;;4999359;28;20041;-66
2022/06/10 00:37:44;;;;;;;1.80;0.60;;;;;;;;;;4998286;28;20041;-65
2022/06/10 00:40:15;;;;;;;2.45;0.80;;;;;;;;;;4997669;28;20116;-65
2022/06/10 00:42:42;;;;;;;4.03;0.80;;;;;;;;;;4997577;28;20049;-63
2022/06/10 00:45:28;;;;;;;1.63;0.60;;;;;;;;;;4996403;28;20034;-64
2022/06/10 00:47:55;;;;;;;3.22;0.60;;;;;;;;;;4996166;28;20065;-65
2022/06/10 00:50:25;;;;;;;2.55;0.70;;;;;;;;;;4996065;28;20113;-65
2022/06/10 00:53:02;;;;;;;2.72;0.80;;;;;;;;;;4997823;28;20722;-59
2022/06/10 00:55:30;;;;;;;4.22;1.00;;;;;;;;;;4996804;28;20057;-59
2022/06/10 00:58:15;;;;;;;3.05;0.80;;;;;;;;;;4997173;28;20056;-64
2022/06/10 01:00:41;;;;;;;2.03;0.73;;;;;;;;;;4998741;28;20073;-64
2022/06/10 01:03:08;;;;;;;3.90;0.82;;;;;;;;;;4998747;28;20121;-65
2022/06/10 01:05:35;;;;;;;4.30;0.75;;;;;;;;;;4997959;28;20030;-64
2022/06/10 01:08:08;;;;;;;3.47;0.82;;;;;;;;;;4997095;28;20088;-69
2022/06/10 01:10:41;;;;;;;3.92;0.90;;;;;;;;;;4995734;28;20050;-63
2022/06/10 01:13:07;;;;;;;;;;;;;;;;;;4997543;28;20317;-64
2022/06/10 01:15:40;;;;;;;4.78;0.82;;;;;;;;;;5028049;28;19924;-64
2022/06/10 01:18:13;;;;;;;4.80;0.90;;;;;;;;;;4996010;28;20143;-64
2022/06/10 01:20:44;;;;;;;4.22;1.10;;;;;;;;;;4995633;28;20042;-63
2022/06/10 01:23:24;;;;;;;2.30;0.75;;;;;;;;;;4996655;28;20042;-67
2022/06/10 01:26:03;;;;;;;3.53;1.08;;;;;;;;;;4997083;28;20065;-64
2022/06/10 01:28:52;;;;;;;3.47;0.80;;;;;;;;;;4996883;28;20154;-63
2022/06/10 01:31:24;;;;;;;3.60;0.80;;;;;;;;;;4979671;28;20574;-64
2022/06/10 01:34:05;;;;;;;3.07;0.70;;;;;;;;;;4996282;28;20376;-64
2022/06/10 01:36:38;;;;;;;4.32;0.80;;;;;;;;;;4997197;28;20321;-64
2022/06/10 01:39:04;;;;;;;;;;;;;;;;;;4997736;28;20100;-64
2022/06/10 01:41:35;;;;;;;3.58;0.80;;;;;;;;;;4996707;28;19961;-64
2022/06/10 01:44:04;;;;;;;1.98;0.80;;;;;;;;;;4997870;28;20042;-64
2022/06/10 01:46:34;;;;;;;4.85;1.10;;;;;;;;;;4998122;28;20089;-64
2022/06/10 01:49:07;;;;;;;2.10;0.70;;;;;;;;;;4997122;28;20046;-60
2022/06/10 01:51:41;;;;;;;6.60;1.02;;;;;;;;;;4995267;28;20046;-65
2022/06/10 01:54:16;;;;;;;3.50;1.05;;;;;;;;;;4997069;28;20038;-63
2022/06/10 01:56:45;;;;;;;2.78;0.60;;;;;;;;;;4999644;28;20060;-63
2022/06/10 01:59:17;;;;;;;3.72;0.80;;;;;;;;;;5002475;28;20077;-63
2022/06/10 02:01:47;;;;;;;3.38;0.90;;;;;;;;;;4999423;28;20120;-63
2022/06/10 02:04:21;;;;;;;2.67;0.88;;;;;;;;;;5001707;28;20034;-64
2022/06/10 02:06:51;;;;;;;3.53;0.90;;;;;;;;;;5001647;28;20046;-64
2022/06/10 02:09:20;;;;;;;3.85;1.02;;;;;;;;;;5000872;28;20034;-64
2022/06/10 02:11:53;;;;;;;2.40;0.70;;;;;;;;;;5001733;28;20053;-64
2022/06/10 02:14:21;;;;;;;3.35;0.90;;;;;;;;;;5002556;28;20045;-64
2022/06/10 02:16:50;;;;;;;4.03;1.00;;;;;;;;;;5000582;28;20030;-64
2022/06/10 02:19:32;;;;;;;4.32;0.82;;;;;;;;;;5001907;28;20558;-65
2022/06/10 02:22:17;;;;;;;3.00;0.80;;;;;;;;;;5003561;28;20103;-64
2022/06/10 02:25:07;;;;;;;3.47;0.80;;;;;;;;;;5002396;28;20164;-63
2022/06/10 02:27:39;;;;;;;2.05;0.65;;;;;;;;;;5002033;28;20057;-64
2022/06/10 02:30:26;;;;;;;2.28;0.63;;;;;;;;;;5002674;28;20046;-64
2022/06/10 02:32:53;;;;;;;5.00;0.80;;;;;;;;;;5002673;28;20056;-64
2022/06/10 02:35:20;;;;;;;4.45;0.70;;;;;;;;;;5000863;28;20065;-64
2022/06/10 02:37:49;;;;;;;4.95;0.70;;;;;;;;;;4999823;28;20045;-64
2022/06/10 02:40:16;;;;;;;1.90;0.68;;;;;;;;;;4999581;28;20052;-64
2022/06/10 02:42:57;;;;;;;2.85;0.80;;;;;;;;;;5001401;28;20065;-64
2022/06/10 02:45:45;;;;;;;3.10;0.68;;;;;;;;;;4999778;28;20060;-65
2022/06/10 02:48:22;;;;;;;2.08;0.68;;;;;;;;;;5031054;28;20069;-64
2022/06/10 02:50:49;;;;;;;1.95;0.57;;;;;;;;;;5000918;28;20116;-64
2022/06/10 02:53:15;;;;;;;2.83;0.75;;;;;;;;;;5001279;28;20038;-64
2022/06/10 02:55:42;;;;;;;2.60;0.60;;;;;;;;;;4999710;28;20042;-64
2022/06/10 03:01:12;;;;;;;2.63;0.73;;;;;;;;;;4998260;28;20785;-64
2022/06/10 03:03:57;;;;;;;2.28;0.68;;;;;;;;;;5000908;28;20047;-64
2022/06/10 03:06:30;;;;;;;2.35;0.63;;;;;;;;;;5022906;28;20499;-65
2022/06/10 03:09:02;;;;;;;1.83;0.52;;;;;;;;;;5029984;28;20068;-64
2022/06/10 03:11:47;;;;;;;2.08;0.52;;;;;;;;;;5000798;28;20057;-63
2022/06/10 03:14:21;;;;;;;2.03;0.60;;;;;;;;;;5001985;28;20046;-64
2022/06/10 03:17:06;;;;;;;2.05;0.60;;;;;;;;;;5000265;28;20065;-57
2022/06/10 03:19:36;;;;;;;2.25;0.77;;;;;;;;;;5000690;28;20049;-63
2022/06/10 03:22:21;;;;;;;2.75;0.70;;;;;;;;;;5001409;28;20086;-64
2022/06/10 03:24:48;;;;;;;3.75;0.93;;;;;;;;;;5001538;28;20069;-64
2022/06/10 03:27:20;;;;;;;1.65;0.52;;;;;;;;;;5001083;28;20379;-64
2022/06/10 03:29:50;;;;;;;2.70;0.50;;;;;;;;;;4999813;28;20142;-63
2022/06/10 03:32:21;;;;;;;3.28;0.63;;;;;;;;;;4999670;28;20041;-63
2022/06/10 03:34:51;;;;;;;1.35;0.50;;;;;;;;;;5002204;28;20049;-63
2022/06/10 03:37:18;;;;;;;4.68;0.60;;;;;;;;;;5000866;28;20762;-62
2022/06/10 03:39:50;;;;;;;3.10;0.63;;;;;;;;;;4997805;28;20070;-63
2022/06/10 03:42:18;;;;;;;2.25;0.60;;;;;;;;;;5000655;28;20458;-63
2022/06/10 03:44:45;;;;;;;1.85;0.57;;;;;;;;;;5000799;28;20069;-61
2022/06/10 03:47:16;;;;;;;2.08;0.60;;;;;;;;;;4999067;28;21198;-64
2022/06/10 03:49:47;;;;;;;1.45;0.50;;;;;;;;;;4998987;28;20073;-58
2022/06/10 03:52:19;;;;;;;2.15;0.65;;;;;;;;;;4999759;28;20558;-58
2022/06/10 03:54:46;;;;;;;3.50;0.70;;;;;;;;;;4999695;28;20042;-62
2022/06/10 03:57:14;;;;;;;2.08;0.60;;;;;;;;;;5000726;28;20714;-63
2022/06/10 03:59:40;;;;;;;2.08;0.50;;;;;;;;;;4999632;28;20053;-62
2022/06/10 04:02:07;;;;;;;2.63;0.70;;;;;;;;;;5033448;28;20045;-63
2022/06/10 04:04:34;;;;;;;1.45;0.47;;;;;;;;;;5001105;28;20127;-63
2022/06/10 04:07:00;;;;;;;1.38;0.47;;;;;;;;;;5001045;28;20160;-63
2022/06/10 04:09:27;;;;;;;1.67;0.50;;;;;;;;;;5000810;28;20394;-64
2022/06/10 04:11:54;;;;;;;1.83;0.60;;;;;;;;;;5002408;28;20044;-64
2022/06/10 04:14:20;;;;;;;2.33;0.57;;;;;;;;;;5000106;28;20520;-64
2022/06/10 04:16:47;;;;;;;3.65;0.60;;;;;;;;;;5000203;28;20045;-64
2022/06/10 04:19:14;;;;;;;2.63;0.60;;;;;;;;;;4998259;28;20053;-63
2022/06/10 04:21:40;;;;;;;1.65;0.50;;;;;;;;;;5001097;28;20045;-59
2022/06/10 04:24:07;;;;;;;2.33;0.60;;;;;;;;;;4999591;28;20042;-58
2022/06/10 04:26:34;;;;;;;3.53;0.60;;;;;;;;;;4999109;28;20038;-60
2022/06/10 04:29:01;;;;;;;2.10;0.60;;;;;;;;;;5013735;28;20038;-57
2022/06/10 04:31:27;;;;;;;2.47;0.55;;;;;;;;;;4996547;28;20125;-59
2022/06/10 04:33:54;;;;;;;2.10;0.50;;;;;;;;;;4999546;28;20042;-59
2022/06/10 04:36:21;;;;;;;2.30;0.60;;;;;;;;;;4999015;28;20046;-59
2022/06/10 04:38:48;;;;;;;2.05;0.50;;;;;;;;;;4998005;28;20053;-58
2022/06/10 04:41:15;;;;;;;2.95;0.63;;;;;;;;;;4998293;28;20995;-59
2022/06/10 04:43:42;;;;;;;2.90;0.55;;;;;;;;;;4996904;28;20102;-57
2022/06/10 04:46:10;;;;;;;2.08;0.55;;;;;;;;;;4998657;28;20040;-59
2022/06/10 04:48:36;;;;;;;5.78;0.57;;;;;;;;;;4997606;28;20137;-58
2022/06/10 04:51:03;;;;;;;1.38;0.40;;;;;;;;;;4998124;28;20797;-58
2022/06/10 04:53:30;;;;;;;1.88;0.60;;;;;;;;;;4998643;28;20046;-58
2022/06/10 04:55:57;;;;;;;2.28;0.52;;;;;;;;;;4999046;28;20044;-59
2022/06/10 04:58:23;;;;;;;2.78;0.80;;;;;;;;;;4998049;28;20057;-57
2022/06/10 05:00:51;;;;;;;1.98;0.40;;;;;;;;;;4998746;28;20428;-59
2022/06/10 05:03:18;;;;;;;3.28;0.50;;;;;;;;;;4998414;28;20041;-57
2022/06/10 05:05:44;;;;;;;0.73;0.30;;;;;;;;;;4997975;28;20140;-60
2022/06/10 05:08:12;;;;;;;2.25;0.40;;;;;;;;;;4996699;28;20034;-58
2022/06/10 05:10:39;;;;;;;2.67;0.47;;;;;;;;;;4998017;28;20399;-59
2022/06/10 05:13:06;;;;;;;1.92;0.40;;;;;;;;;;4998152;28;20030;-60
2022/06/10 05:15:32;;;;;;;1.38;0.40;;;;;;;;;;4998373;28;20092;-59
2022/06/10 05:17:59;;;;;;;0.45;0.30;;;;;;;;;;4997614;28;20044;-59
2022/06/10 05:20:28;;;;;;;1.10;0.32;;;;;;;;;;4996950;28;20057;-59
2022/06/10 05:22:55;;;;;;;1.50;0.35;;;;;;;;;;4998399;28;20052;-59
2022/06/10 05:25:42;;;;;;;2.90;0.40;;;;;;;;;;5034345;28;20341;-59
2022/06/10 05:28:10;;;;;;;1.42;0.40;;;;;;;;;;5034277;28;20045;-59
2022/06/10 05:30:37;;;;;;;1.67;0.38;;;;;;;;;;5034053;28;20051;-57
2022/06/10 05:33:05;;;;;;;1.20;0.40;;;;;;;;;;5036796;28;20380;-58
2022/06/10 05:35:32;;;;;;;0.77;0.30;;;;;;;;;;5035070;28;20068;-59
2022/06/10 05:37:59;;;;;;;1.45;0.40;;;;;;;;;;5036024;28;22193;-60
2022/06/10 05:40:27;;;;;;;3.40;0.40;;;;;;;;;;5034925;28;20057;-59
2022/06/10 05:42:54;;;;;;;2.17;0.50;;;;;;;;;;5035998;28;20041;-59
2022/06/10 05:45:21;;;;;;;2.10;0.50;;;;;;;;;;5034259;28;20164;-59
2022/06/10 05:47:50;;;;;;;2.63;0.40;;;;;;;;;;5033214;28;20339;-60
2022/06/10 05:50:36;;;;;;;2.45;0.50;;;;;;;;;;5035303;28;20037;-58
2022/06/10 05:53:04;;;;;;;2.20;0.60;;;;;;;;;;5034115;28;20041;-59
2022/06/10 05:55:32;;;;;;;0.85;0.30;;;;;;;;;;5033929;28;20044;-58
2022/06/10 05:57:59;;;;;;;0.85;0.32;;;;;;;;;;4997974;28;20095;-59
2022/06/10 06:00:27;;;;;;;2.92;0.40;;;;;;;;;;4997818;28;20485;-59
2022/06/10 06:02:54;;;;;;;3.15;0.60;;;;;;;;;;4998417;28;20128;-59
2022/06/10 06:05:21;;;;;;;1.77;0.50;;;;;;;;;;4999080;28;20081;-60
2022/06/10 06:07:48;;;;;;;1.02;0.40;;;;;;;;;;4995622;28;20506;-59
2022/06/10 06:10:16;;;;;;;2.10;0.40;;;;;;;;;;4997221;28;20145;-58
2022/06/10 06:12:43;;;;;;;0.52;0.30;;;;;;;;;;4997074;28;20061;-60
2022/06/10 06:15:11;;;;;;;1.20;0.45;;;;;;;;;;4997843;28;20054;-60
2022/06/10 06:17:37;;;;;;;0.95;0.50;;;;;;;;;;4996303;28;20183;-59
2022/06/10 06:20:05;;;;;;;1.27;0.47;;;;;;;;;;4996481;28;21825;-59
2022/06/10 06:22:31;;;;;;;0.80;0.40;;;;;;;;;;4996759;28;20069;-57
2022/06/10 06:24:58;;;;;;;2.78;0.50;;;;;;;;;;4997056;28;20172;-58
2022/06/10 06:27:24;;;;;;;0.38;0.30;;;;;;;;;;4996536;28;20125;-57
2022/06/10 06:29:51;;;;;;;1.40;0.52;;;;;;;;;;4996377;28;20535;-58
2022/06/10 06:32:18;;;;;;;1.35;0.45;;;;;;;;;;4996767;28;20049;-57
2022/06/10 06:34:44;;;;;;;0.70;0.30;;;;;;;;;;4995837;28;20040;-58
2022/06/10 06:37:14;;;;;;;1.30;0.40;;;;;;;;;;4997500;28;20043;-60
2022/06/10 06:39:41;;;;;;;1.42;0.43;;;;;;;;;;4995577;28;20148;-59
2022/06/10 06:42:09;;;;;;;1.98;0.55;;;;;;;;;;4997016;28;20045;-59
2022/06/10 06:44:36;;;;;;;2.67;0.52;;;;;;;;;;4999799;28;20137;-59
2022/06/10 06:47:03;;;;;;;1.63;0.50;;;;;;;;;;4999383;28;20045;-58
2022/06/10 06:49:30;;;;;;;1.08;0.40;;;;;;;;;;4998418;28;20092;-58
2022/06/10 06:51:57;;;;;;;1.20;0.40;;;;;;;;;;5000490;28;20597;-58
2022/06/10 06:54:24;;;;;;;1.50;0.45;;;;;;;;;;5031109;28;20041;-59
2022/06/10 06:56:50;;;;;;;1.02;0.40;;;;;;;;;;5000146;28;20040;-59
2022/06/10 06:59:17;;;;;;;2.80;0.50;;;;;;;;;;4999201;28;20109;-58
2022/06/10 07:01:44;;;;;;;2.05;0.40;;;;;;;;;;4998529;28;20060;-58
2022/06/10 07:04:10;;;;;;;1.45;0.50;;;;;;;;;;4998987;28;20045;-58
2022/06/10 07:06:38;;;;;;;1.05;0.50;;;;;;;;;;4999176;28;20092;-59
2022/06/10 07:09:05;;;;;;;0.88;0.40;;;;;;;;;;4999007;28;20046;-59
2022/06/10 07:11:32;;;;;;;2.17;0.40;;;;;;;;;;4998160;28;20490;-59
2022/06/10 07:13:59;;;;;;;0.77;0.40;;;;;;;;;;4999556;28;20038;-59
2022/06/10 07:16:26;;;;;;;0.90;0.40;;;;;;;;;;4998273;28;20867;-58
2022/06/10 07:18:53;;;;;;;1.50;0.57;;;;;;;;;;4998248;28;20611;-59
2022/06/10 07:21:20;;;;;;;2.42;0.63;;;;;;;;;;4999153;28;20133;-57
2022/06/10 07:23:46;;;;;;;0.95;0.40;;;;;;;;;;4998384;28;20100;-59
2022/06/10 07:26:13;;;;;;;4.30;0.50;;;;;;;;;;4998227;28;20501;-57
2022/06/10 07:28:40;;;;;;;1.73;0.47;;;;;;;;;;5012663;28;20046;-59
2022/06/10 07:31:06;;;;;;;3.92;0.60;;;;;;;;;;4998684;28;20079;-58
2022/06/10 07:33:35;;;;;;;4.60;0.75;;;;;;;;;;4997592;28;20418;-58
2022/06/10 07:36:04;;;;;;;3.65;0.70;;;;;;;;;;4999456;28;20464;-58
2022/06/10 07:38:31;;;;;;;5.15;1.13;;;;;;;;;;5017555;28;20584;-58
2022/06/10 07:43:43;;;;;;;2.78;0.70;;;;;;;;;;4997366;28;20103;-59
2022/06/10 07:46:12;;;;;;;2.75;0.63;;;;;;;;;;4999282;28;20268;-59
2022/06/10 07:48:39;;;;;;;2.55;0.68;;;;;;;;;;4997142;28;20117;-58
2022/06/10 07:51:06;;;;;;;3.97;0.68;;;;;;;;;;4999899;28;20046;-59
2022/06/10 07:53:32;;;;;;;3.22;0.70;;;;;;;;;;4997767;28;20050;-58
2022/06/10 07:56:00;;;;;;;2.53;0.60;;;;;;;;;;4998798;28;20383;-59
2022/06/10 07:58:29;;;;;;;1.95;0.50;;;;;;;;;;4999617;28;20046;-59
2022/06/10 08:00:57;;;;;;;3.28;0.60;;;;;;;;;;5014335;28;20046;-58
2022/06/10 08:03:23;;;;;;;1.08;0.40;;;;;;;;;;4999112;28;20065;-58
2022/06/10 08:05:50;;;;;;;2.38;0.50;;;;;;;;;;5001132;28;20093;-60
2022/06/10 08:08:18;;;;;;;1.17;0.40;;;;;;;;;;4998822;28;20073;-60
2022/06/10 08:10:46;;;;;;;1.33;0.40;;;;;;;;;;5000405;28;20085;-59
2022/06/10 08:13:13;;;;;;;1.92;0.50;;;;;;;;;;5015061;28;20057;-58
2022/06/10 08:15:40;;;;;;;1.75;0.55;;;;;;;;;;4999378;28;20511;-60
2022/06/10 08:18:07;;;;;;;1.50;0.50;;;;;;;;;;5000791;28;20766;-60
2022/06/10 08:23:30;;;;;;;1.20;0.40;;;;;;;;;;4998269;28;20045;-60
2022/06/10 08:25:57;;;;;;;2.38;0.50;;;;;;;;;;5031183;28;20903;-59
2022/06/10 08:28:24;;;;;;;1.42;0.50;;;;;;;;;;4998004;28;20049;-58
2022/06/10 08:30:51;;;;;;;3.03;0.43;;;;;;;;;;5000522;28;20056;-59
2022/06/10 08:33:18;;;;;;;0.77;0.40;;;;;;;;;;5000088;28;20490;-60
2022/06/10 08:35:46;;;;;;;2.25;0.50;;;;;;;;;;4998451;28;20038;-60
2022/06/10 08:38:13;;;;;;;1.98;0.65;;;;;;;;;;4997631;28;20522;-60
2022/06/10 08:40:40;;;;;;;3.35;0.60;;;;;;;;;;4997015;28;20053;-59
2022/06/10 08:43:13;;;;;;;2.03;0.60;;;;;;;;;;5001106;28;20045;-59
2022/06/10 08:45:42;;;;;;;1.77;0.57;;;;;;;;;;4999753;28;20146;-60
2022/06/10 08:48:18;;;;;;;1.27;0.40;;;;;;;;;;4998744;28;20061;-58
2022/06/10 08:50:44;;;;;;;1.70;0.50;;;;;;;;;;4999110;28;20049;-59
2022/06/10 08:53:17;;;;;;;2.00;0.63;;;;;;;;;;4998543;28;20041;-59
2022/06/10 08:56:05;;;;;;;3.22;0.90;;;;;;;;;;4998400;28;21782;-59
2022/06/10 08:58:44;;;;;;;5.32;1.13;;;;;;;;;;4999163;28;20037;-58
2022/06/10 09:01:16;;;;;;;4.65;1.20;;;;;;;;;;4998696;28;20061;-59
2022/06/10 09:03:50;;;;;;;5.38;1.35;;;;;;;;;;4998770;28;20044;-59
2022/06/10 09:06:20;;;;;;;3.13;1.02;;;;;;;;;;4998564;28;20057;-59
2022/06/10 09:08:49;;;;;;;4.32;1.38;;;;;;;;;;4997876;28;20042;-59
2022/06/10 09:11:20;;;;;;;4.47;1.10;;;;;;;;;;4999118;28;20140;-59
2022/06/10 09:13:54;;;;;;;4.22;1.00;;;;;;;;;;4998427;28;20494;-59
2022/06/10 09:16:39;;;;;;;3.45;1.23;;;;;;;;;;4999040;28;20717;-59
2022/06/10 09:19:11;;;;;;;3.28;1.00;;;;;;;;;;4997534;28;20077;-59
2022/06/10 09:21:46;;;;;;;8.20;1.05;;;;;;;;;;4997083;28;20056;-59
2022/06/10 09:24:17;;;;;;;2.28;0.60;;;;;;;;;;4998743;28;20050;-57
2022/06/10 09:26:49;;;;;;;3.30;0.70;;;;;;;;;;4997656;28;20045;-58
2022/06/10 09:29:16;;;;;;;3.15;0.60;;;;;;;;;;4998174;28;20042;-60
2022/06/10 09:31:48;;;;;;;3.90;0.80;;;;;;;;;;4997886;28;20112;-58
2022/06/10 09:34:19;;;;;;;4.40;0.60;;;;;;;;;;5014634;28;20029;-59
2022/06/10 09:36:55;;;;;;;2.92;0.82;;;;;;;;;;4998079;28;20802;-59
2022/06/10 09:42:21;;;;;;;2.30;0.70;;;;;;;;;;4999134;28;20048;-59
2022/06/10 09:44:57;;;;;;;3.22;0.70;;;;;;;;;;4998515;28;20038;-58
2022/06/10 09:47:24;;;;;;;3.80;0.90;;;;;;;;;;4998670;28;20061;-59
2022/06/10 09:49:50;;;;;;;3.00;0.90;;;;;;;;;;4998804;28;20130;-60
2022/06/10 09:52:30;;;;;;;4.40;0.70;;;;;;;;;;4999057;28;20462;-59
2022/06/10 09:55:16;;;;;;;3.88;0.73;;;;;;;;;;4999615;28;20045;-60
2022/06/10 09:58:00;;;;;;;2.70;0.80;;;;;;;;;;4997520;28;20046;-60
2022/06/10 10:00:33;;;;;;;2.20;0.70;;;;;;;;;;4998438;28;20057;-60
2022/06/10 10:03:19;;;;;;;6.38;0.80;;;;;;;;;;5013727;28;20045;-60
2022/06/10 10:05:49;;;;;;;5.15;1.00;;;;;;;;;;4999364;28;20034;-59
2022/06/10 10:08:24;;;;;;;2.58;0.80;;;;;;;;;;4998733;28;20045;-59
2022/06/10 10:11:04;;;;;;;4.05;0.73;;;;;;;;;;4998992;28;20121;-59
2022/06/10 10:13:31;;;;;;;5.80;0.68;;;;;;;;;;5000571;28;20069;-59
2022/06/10 10:16:03;;;;;;;3.60;0.90;;;;;;;;;;5002901;28;20179;-59
2022/06/10 10:18:38;;;;;;;2.67;0.70;;;;;;;;;;5001781;28;21438;-59
2022/06/10 10:21:16;;;;;;;3.35;0.73;;;;;;;;;;5000390;28;20141;-58
2022/06/10 10:23:46;;;;;;;2.30;0.70;;;;;;;;;;5000943;28;20133;-59
2022/06/10 10:26:20;;;;;;;3.50;0.70;;;;;;;;;;4999969;28;20179;-59
2022/06/10 10:28:47;;;;;;;3.15;0.88;;;;;;;;;;5000095;28;20048;-57
2022/06/10 10:31:23;;;;;;;2.08;0.75;;;;;;;;;;4999520;28;20042;-59
2022/06/10 10:33:50;;;;;;;5.07;1.15;;;;;;;;;;5014804;28;20056;-59
2022/06/10 10:36:21;;;;;;;6.00;0.82;;;;;;;;;;4999763;28;20049;-58
2022/06/10 10:38:49;;;;;;;7.05;1.02;;;;;;;;;;4997935;28;20510;-57
2022/06/10 10:41:31;;;;;;;3.25;0.90;;;;;;;;;;4998468;28;20049;-59
2022/06/10 10:44:02;;;;;;;3.72;1.10;;;;;;;;;;4999657;28;20899;-58
2022/06/10 10:46:37;;;;;;;4.45;1.13;;;;;;;;;;4999583;28;20046;-58
2022/06/10 10:49:06;;;;;;;4.57;1.00;;;;;;;;;;4999994;28;20038;-59
2022/06/10 10:51:40;;;;;;;2.95;0.80;;;;;;;;;;4998953;28;20042;-60
2022/06/10 10:54:15;;;;;;;2.90;0.93;;;;;;;;;;4999614;28;20116;-58
2022/06/10 10:56:43;;;;;;;3.72;1.00;;;;;;;;;;4999574;28;20133;-59
2022/06/10 10:59:28;;;;;;;3.88;0.93;;;;;;;;;;5000379;28;20038;-61
2022/06/10 11:01:55;;;;;;;4.90;0.93;;;;;;;;;;4999046;28;20050;-59
2022/06/10 11:04:29;;;;;;;4.78;1.00;;;;;;;;;;4999819;28;20034;-58
2022/06/10 11:07:22;;;;;;;4.13;0.90;;;;;;;;;;5000163;28;20702;-59
2022/06/10 11:09:52;;;;;;;4.00;0.98;;;;;;;;;;4997894;28;20046;-60
2022/06/10 11:12:26;;;;;;;3.22;0.88;;;;;;;;;;4999834;28;20030;-59
2022/06/10 11:15:05;;;;;;;3.58;0.70;;;;;;;;;;4997391;28;20525;-59
2022/06/10 11:17:33;;;;;;;2.85;0.75;;;;;;;;;;4998044;28;20347;-59
2022/06/10 11:20:01;;;;;;;7.80;1.20;;;;;;;;;;5030716;28;20073;-55
2022/06/10 11:22:39;;;;;;;5.18;1.15;;;;;;;;;;4998978;28;20497;-60
2022/06/10 11:25:15;;;;;;;8.18;1.63;;;;;;;;;;4999272;28;20096;-58
2022/06/10 11:27:50;;;;;;;10.85;1.63;;;;;;;;;;4997487;28;20038;-58
2022/06/10 11:30:17;;;;;;;12.13;1.40;;;;;;;;;;4999176;28;20053;-59
2022/06/10 11:32:50;;;;;;;9.80;1.23;;;;;;;;;;4999112;28;20441;-59
2022/06/10 11:35:31;;;;;;;9.65;1.58;;;;;;;;;;4998607;28;20029;-57
2022/06/10 11:38:18;;;;;;;9.63;1.67;;;;;;;;;;4998625;28;20050;-57
2022/06/10 11:40:48;;;;;;;12.82;1.75;;;;;;;;;;4999029;28;20050;-59
2022/06/10 11:43:21;;;;;;;10.10;1.75;;;;;;;;;;5000658;28;20394;-59
2022/06/10 11:45:54;;;;;;;4.57;1.30;;;;;;;;;;4999984;28;20112;-61
2022/06/10 11:48:24;;;;;;;6.07;1.07;;;;;;;;;;4999727;28;20124;-58
2022/06/10 11:51:17;;;;;;;4.90;0.85;;;;;;;;;;5001268;28;20337;-60
2022/06/10 11:53:55;;;;;;;5.78;0.75;;;;;;;;;;5012044;28;20139;-60
2022/06/10 12:02:03;;;;;;;1.73;0.50;;;;;;;;;;4999492;28;20073;-60
2022/06/10 12:04:32;;;;;;;0.85;0.40;;;;;;;;;;5008577;28;20106;-59
2022/06/10 12:07:02;;;;;;;1.60;0.40;;;;;;;;;;5013192;28;20065;-58
2022/06/10 12:09:32;;;;;;;2.08;0.30;;;;;;;;;;4998587;28;20025;-60
2022/06/10 12:11:59;;;;;;;1.75;0.55;;;;;;;;;;5000085;28;20137;-58
2022/06/10 12:14:46;;;;;;;1.83;0.40;;;;;;;;;;4999401;28;20041;-59
2022/06/10 12:17:16;;;;;;;2.28;0.50;;;;;;;;;;5000356;28;20123;-64
2022/06/10 12:19:50;;;;;;;1.05;0.40;;;;;;;;;;4998243;28;20051;-62
2022/06/10 12:22:17;;;;;;;1.73;0.50;;;;;;;;;;5014229;28;20034;-60
2022/06/10 12:24:46;;;;;;;1.85;0.43;;;;;;;;;;4998935;28;20113;-60
2022/06/10 12:27:16;;;;;;;0.95;0.47;;;;;;;;;;5000211;28;20038;-60
2022/06/10 12:29:46;;;;;;;2.53;0.50;;;;;;;;;;4997858;28;20414;-62
2022/06/10 12:32:21;;;;;;;1.20;0.40;;;;;;;;;;4999644;28;20050;-62
2022/06/10 12:34:57;;;;;;;1.05;0.40;;;;;;;;;;4998692;28;20574;-63
2022/06/10 12:37:33;;;;;;;2.20;0.55;;;;;;;;;;4998600;28;20104;-65
2022/06/10 12:40:02;;;;;;;4.15;0.60;;;;;;;;;;5012890;28;20417;-65
2022/06/10 12:42:34;;;;;;;8.60;0.47;;;;;;;;;;4998021;28;20180;-65
2022/06/10 12:45:03;;;;;;;3.90;0.60;;;;;;;;;;4997164;28;20103;-65
2022/06/10 12:47:37;;;;;;;2.35;0.40;;;;;;;;;;5000023;28;20040;-65
2022/06/10 12:50:16;;;;;;;4.43;0.45;;;;;;;;;;4999465;28;20100;-65
2022/06/10 12:52:52;;;;;;;2.63;0.60;;;;;;;;;;4998025;28;20065;-65
2022/06/10 12:55:22;;;;;;;1.92;0.47;;;;;;;;;;4997719;28;20391;-64
2022/06/10 12:57:49;;;;;;;1.60;0.40;;;;;;;;;;4999624;28;20130;-63
2022/06/10 13:00:18;;;;;;;1.70;0.43;;;;;;;;;;5000066;28;20124;-63
2022/06/10 13:02:49;;;;;;;2.83;0.40;;;;;;;;;;4999705;28;20617;-63
2022/06/10 13:05:18;;;;;;;2.83;0.30;;;;;;;;;;5002124;28;20037;-64
2022/06/10 13:07:47;;;;;;;1.17;0.43;;;;;;;;;;5001419;28;20050;-64
2022/06/10 13:10:29;;;;;;;1.88;0.40;;;;;;;;;;5017289;28;20148;-58
2022/06/10 13:13:09;;;;;;;2.55;0.40;;;;;;;;;;5001116;28;20038;-58
2022/06/10 13:15:36;;;;;;;1.45;0.35;;;;;;;;;;5030331;28;20077;-59
2022/06/10 13:18:22;;;;;;;3.72;0.40;;;;;;;;;;4998950;28;21766;-59
2022/06/10 13:20:50;;;;;;;1.25;0.40;;;;;;;;;;4997878;28;20061;-59
2022/06/10 13:23:23;;;;;;;0.82;0.30;;;;;;;;;;4999674;28;20569;-58
2022/06/10 13:26:05;;;;;;;1.70;0.45;;;;;;;;;;4996417;28;20038;-59
2022/06/10 13:28:37;;;;;;;2.03;0.45;;;;;;;;;;4995599;28;20113;-59
2022/06/10 13:31:13;;;;;;;1.05;0.40;;;;;;;;;;4998824;28;20041;-58
2022/06/10 13:34:00;;;;;;;5.60;0.40;;;;;;;;;;4998433;28;20164;-59
2022/06/10 13:36:34;;;;;;;4.65;0.60;;;;;;;;;;4997925;28;20515;-59
2022/06/10 13:39:01;;;;;;;1.63;0.40;;;;;;;;;;4996878;28;20092;-59
2022/06/10 13:41:49;;;;;;;1.60;0.60;;;;;;;;;;4998287;28;20064;-59
2022/06/10 13:44:34;;;;;;;3.50;0.50;;;;;;;;;;5000783;28;20153;-58
2022/06/10 13:47:05;;;;;;;0.90;0.40;;;;;;;;;;4999773;28;20317;-59
2022/06/10 13:49:45;;;;;;;6.45;0.50;;;;;;;;;;4999146;28;20128;-60
2022/06/10 13:52:25;;;;;;;1.98;0.57;;;;;;;;;;5001528;28;20053;-59
2022/06/10 13:54:53;;;;;;;1.77;0.50;;;;;;;;;;4999536;28;20041;-59
2022/06/10 13:57:46;;;;;;;5.65;0.40;;;;;;;;;;4998570;28;20056;-58
2022/06/10 14:00:21;;;;;;;0.70;0.30;;;;;;;;;;4997118;28;20876;-58
2022/06/10 14:02:49;;;;;;;1.45;0.43;;;;;;;;;;4997512;28;20062;-60
2022/06/10 14:05:19;;;;;;;0.85;0.40;;;;;;;;;;4996647;28;20038;-59
2022/06/10 14:07:46;;;;;;;1.05;0.30;;;;;;;;;;5011717;28;20475;-59
2022/06/10 14:10:19;;;;;;;3.15;0.60;;;;;;;;;;4997086;28;20058;-59
2022/06/10 14:13:00;;;;;;;1.27;0.30;;;;;;;;;;4996136;28;20060;-59
2022/06/10 14:15:28;;;;;;;4.50;0.47;;;;;;;;;;4997327;28;20046;-59
2022/06/10 14:17:57;;;;;;;1.58;0.50;;;;;;;;;;4997276;28;20049;-59
2022/06/10 14:20:27;;;;;;;2.85;0.50;;;;;;;;;;4996599;28;20179;-59
2022/06/10 14:23:00;;;;;;;9.00;0.60;;;;;;;;;;4998538;28;20108;-59
2022/06/10 14:25:27;;;;;;;1.58;0.40;;;;;;;;;;4997540;28;20069;-59
2022/06/10 14:28:09;;;;;;;3.85;0.40;;;;;;;;;;4999973;28;20042;-58
2022/06/10 14:30:37;;;;;;;4.85;0.43;;;;;;;;;;5012565;28;20042;-60
2022/06/10 14:33:15;;;;;;;2.28;0.50;;;;;;;;;;5030312;28;20054;-59
2022/06/10 14:35:43;;;;;;;6.85;0.77;;;;;;;;;;5000138;28;20150;-59
2022/06/10 14:38:12;;;;;;;6.32;0.47;;;;;;;;;;5000732;28;20207;-58
2022/06/10 14:40:58;;;;;;;4.47;0.30;;;;;;;;;;4999432;28;20057;-59
2022/06/10 14:43:26;;;;;;;7.68;0.70;;;;;;;;;;5000345;28;20289;-59
2022/06/10 14:46:07;;;;;;;0.95;0.38;;;;;;;;;;5000251;28;21833;-59
2022/06/10 14:48:37;;;;;;;3.80;0.30;;;;;;;;;;4998649;28;20041;-60
2022/06/10 14:51:11;;;;;;;11.00;0.63;;;;;;;;;;4999323;28;20033;-59
2022/06/10 14:53:40;;;;;;;4.43;0.40;;;;;;;;;;4999129;28;20042;-59
2022/06/10 14:56:29;;;;;;;2.88;0.40;;;;;;;;;;4998323;28;20096;-59
2022/06/10 14:58:56;;;;;;;0.68;0.30;;;;;;;;;;5011971;28;20044;-60
2022/06/10 15:01:24;;;;;;;1.77;0.50;;;;;;;;;;4998546;28;20089;-60
2022/06/10 15:03:51;;;;;;;5.45;0.30;;;;;;;;;;4999042;28;20394;-59
2022/06/10 15:06:23;;;;;;;1.38;0.40;;;;;;;;;;5000778;28;20053;-59
2022/06/10 15:08:53;;;;;;;3.10;0.30;;;;;;;;;;5000667;28;20046;-60
2022/06/10 15:11:20;;;;;;;6.00;0.40;;;;;;;;;;5001829;28;20033;-59
2022/06/10 15:13:47;;;;;;;1.33;0.28;;;;;;;;;;4999485;28;20119;-60
2022/06/10 15:16:15;;;;;;;0.77;0.22;;;;;;;;;;5000566;28;20034;-60
2022/06/10 15:18:42;;;;;;;2.55;0.50;;;;;;;;;;4998593;28;20557;-58
2022/06/10 15:21:13;;;;;;;0.47;0.20;;;;;;;;;;5001454;28;20082;-58
2022/06/10 15:23:41;;;;;;;0.85;0.25;;;;;;;;;;4998942;28;20436;-59